Pagina principale
METAR-TAF:

METAR-TAF

Aeroporti :

Aeroporto di Brindisi-Casale

Brindisi, Italia

latitudine: 40-39N, longitudine: 017-57E, altezza: 15 m

Osservazione

Il bollettino è stato emesso 18 minuti fa, alle 09:20 UTC
Vento 5 kt da sud, variando fra sud-est e sud/sud-ovest
Temperature 16°C
Umidità 59%
Pressione 1013 hPa
Visibilità 10 km o più
nessuna nube inferiore a 1500 m e nessun cumulonembo

METAR: LIBR 090920Z 17005KT 140V210 CAVOK 16/08 Q1013

Ora: 10:38 (09:38 UTC)

Previsione

Il bollettino è stato emesso 4 ore e 38 minuti fa, alle 05:00 UTC
Previsione valida dal 09 alle 06 UTC al 10 alle 06 UTC
Vento 5 kt da direzioni variabili
Visibilità 10 km o più
Nubi sparse ad un'altezza di 3000 ft
Evoluzione graduale
dal 09 alle 13 UTC al 09 alle 15 UTC
Vento 12 kt da sud/sud-ovest
Temporaneamente
dal 10 alle 00 UTC al 10 alle 06 UTC
pioggia

TAF: LIBR 090500Z 0906/1006 VRB05KT 9999 SCT030 BECMG 0913/0915 20012KT TEMPO 1000/1006 RA

Osservazioni e previsioni meteorologiche di più di 4000 aeroporti (messaggi METAR e TAF).

Le stazioni disponibili sono rappresentate dai dischi gialli e rossi sulla carta.

Puntare il mouse per vedere il nome della stazione.

Clicca sopra per visualizzare le osservazioni e previsioni meteorologiche.

Per cambiare la mappa : fare clic sui pulsanti verdi con una croce nera per ingrandire, il pulsante verde con un trattino per diminuire, o sulla freccia verde per le mappe adiacenti.


METAR-TAF: